Main page
METAR-TAF:

METAR-TAF

Airports :

Kiel Airport

Kiel, Germany

latitude: 54-23N, longitude: 010-10E, elevation: 31 m

Current weather observation

The report was made 30 minutes ago, at 05:50 UTC
Wind 6 kt from the West
Temperature 12°C
Humidity 76%
Pressure 1023 hPa
Visibility 10 km or more
no clouds below 1500 m and no cumulonimbus

METAR: EDHK 200550Z 28006KT CAVOK 12/08 Q1023

Time: 08:20 (06:20 UTC)

Forecast

The report was made 1 hour and 20 minutes ago, at 05:00 UTC
Forecast valid from 20 at 06 UTC to 20 at 15 UTC
Wind 4 kt from the West
Visibility 10 km or more
Few clouds at a height of 3000 ft

TAF: EDHK 200500Z 2006/2015 26004KT 9999 FEW030

Weather observations and forecasts of more than 4000 airports (METAR and TAF reports).

The available stations are represented by yellow and red dots on the map.

Hover mouse over dot to see the name of the station.

Then click to see weather observations and forecasts.

To change the map : click on the green buttons with a black cross to zoom in, on the green button with a dash to zoom out, or on the green arrows for adjacent maps.


METAR-TAF: